Friday, April 02, 2010

What A Difference A Few Days Makes

Today's TAF tells a much different story from the fog seen earlier this week:

KCLE 021551Z 20009KT 10SM FEW120 BKN250 26/07 A3002 RMK AO2 SLP160 T02610072

Unfortunately, after spending the last 1.5 days on the couch, doing battle with some sort of flu-like bug, the IFR Pilot is strapped into the left seat in his office, pushing around papers.

The good news: MS and the IFR Pilot are off on a journey to Florida next Friday. Good times abound for the approximately-36-hour trip we're planning.

0 Comments:

Post a Comment

<< Home

eXTReMe Tracker